CheckWX is a tool to help pilots better visualize weather data.  It is not intended as a substitute for an official pre-flight weather briefing.

10:02:47 UTC

LEMG METAR
Málaga Airport
Málaga, Spain
Current

33 mins ago

LEMG 190930Z 30015KT 9999 FEW030 SCT055 14/07 Q1019 NOSIG
Observed
Jan-19 @ 09:30 UTC
Wind
  • 300° at 15 KTS
Visibility
10,000+ meters
Flight Rules
VFR
Cloud Levels
  • Few at 3,000' AGL
  • Scattered at 5,500' AGL
Temperature
14°C / 57°F
Dewpoint
C / 45°F
Humidity
63%
Altimeter
30.09" Hg
Pressure
1018.92 hPa
Previous

1 hour ago

LEMG 190900Z 30018KT 9999 FEW020 13/07 Q1018 NOSIG
Observed
Jan-19 @ 09:00 UTC
Wind
  • 300° at 18 KTS
Visibility
10,000+ meters
Flight Rules
VFR
Cloud Levels
  • Few at 2,000' AGL
Temperature
13°C / 55°F
Dewpoint
C / 45°F
Humidity
67%
Altimeter
30.06" Hg
Pressure
1017.92 hPa
Previous

2 hours ago

LEMG 190830Z 29020KT 9999 FEW020 12/07 Q1018 NOSIG
Observed
Jan-19 @ 08:30 UTC
Wind
  • 290° at 20 KTS
Visibility
10,000+ meters
Flight Rules
VFR
Cloud Levels
  • Few at 2,000' AGL
Temperature
12°C / 54°F
Dewpoint
C / 45°F
Humidity
72%
Altimeter
30.06" Hg
Pressure
1017.92 hPa